sensor_id;sensor_type;location;lat;lon;timestamp;temperature;humidity
46041;DHT22;31779;49.124;19.190;2022-07-04T00:01:18;15.00;99.90
46041;DHT22;31779;49.124;19.190;2022-07-04T00:03:46;14.90;99.90
46041;DHT22;31779;49.124;19.190;2022-07-04T00:06:14;14.90;99.90
46041;DHT22;31779;49.124;19.190;2022-07-04T00:08:42;14.90;99.90
46041;DHT22;31779;49.124;19.190;2022-07-04T00:11:10;14.90;99.90
46041;DHT22;31779;49.124;19.190;2022-07-04T00:13:38;14.80;99.90
46041;DHT22;31779;49.124;19.190;2022-07-04T00:16:05;14.80;99.90
46041;DHT22;31779;49.124;19.190;2022-07-04T00:18:33;14.70;99.90
46041;DHT22;31779;49.124;19.190;2022-07-04T00:21:01;14.70;99.90
46041;DHT22;31779;49.124;19.190;2022-07-04T00:23:29;14.70;99.90
46041;DHT22;31779;49.124;19.190;2022-07-04T00:25:57;14.60;99.90
46041;DHT22;31779;49.124;19.190;2022-07-04T00:28:24;14.70;99.90
46041;DHT22;31779;49.124;19.190;2022-07-04T00:30:52;14.60;99.90
46041;DHT22;31779;49.124;19.190;2022-07-04T00:33:20;14.60;99.90
46041;DHT22;31779;49.124;19.190;2022-07-04T00:35:48;14.60;99.90
46041;DHT22;31779;49.124;19.190;2022-07-04T00:38:15;14.50;99.90
46041;DHT22;31779;49.124;19.190;2022-07-04T00:40:43;14.40;99.90
46041;DHT22;31779;49.124;19.190;2022-07-04T00:43:11;14.40;99.90
46041;DHT22;31779;49.124;19.190;2022-07-04T00:45:39;14.40;99.90
46041;DHT22;31779;49.124;19.190;2022-07-04T00:48:13;14.40;99.90
46041;DHT22;31779;49.124;19.190;2022-07-04T00:50:56;14.30;99.90
46041;DHT22;31779;49.124;19.190;2022-07-04T00:53:43;14.30;99.90
46041;DHT22;31779;49.124;19.190;2022-07-04T00:56:26;14.30;99.90
46041;DHT22;31779;49.124;19.190;2022-07-04T00:59:20;14.30;99.90
46041;DHT22;31779;49.124;19.190;2022-07-04T01:04:57;14.20;99.90
46041;DHT22;31779;49.124;19.190;2022-07-04T01:07:26;14.20;99.90
46041;DHT22;31779;49.124;19.190;2022-07-04T01:09:54;14.10;99.90
46041;DHT22;31779;49.124;19.190;2022-07-04T01:12:26;14.00;99.90
46041;DHT22;31779;49.124;19.190;2022-07-04T01:14:55;14.00;99.90
46041;DHT22;31779;49.124;19.190;2022-07-04T01:17:23;13.90;99.90
46041;DHT22;31779;49.124;19.190;2022-07-04T01:19:51;13.90;99.90
46041;DHT22;31779;49.124;19.190;2022-07-04T01:22:18;13.90;99.90
46041;DHT22;31779;49.124;19.190;2022-07-04T01:24:50;13.90;99.90
46041;DHT22;31779;49.124;19.190;2022-07-04T01:27:18;13.90;99.90
46041;DHT22;31779;49.124;19.190;2022-07-04T01:29:46;13.80;99.90
46041;DHT22;31779;49.124;19.190;2022-07-04T01:32:14;13.80;99.90
46041;DHT22;31779;49.124;19.190;2022-07-04T01:34:42;13.70;99.90
46041;DHT22;31779;49.124;19.190;2022-07-04T01:37:11;13.70;99.90
46041;DHT22;31779;49.124;19.190;2022-07-04T01:39:39;13.70;99.90
46041;DHT22;31779;49.124;19.190;2022-07-04T01:42:07;13.70;99.90
46041;DHT22;31779;49.124;19.190;2022-07-04T01:44:35;13.60;99.90
46041;DHT22;31779;49.124;19.190;2022-07-04T01:47:03;13.60;99.90
46041;DHT22;31779;49.124;19.190;2022-07-04T01:49:31;13.50;99.90
46041;DHT22;31779;49.124;19.190;2022-07-04T01:51:59;13.50;99.90
46041;DHT22;31779;49.124;19.190;2022-07-04T01:54:27;13.50;99.90
46041;DHT22;31779;49.124;19.190;2022-07-04T01:56:54;13.50;99.90
46041;DHT22;31779;49.124;19.190;2022-07-04T01:59:22;13.40;99.90
46041;DHT22;31779;49.124;19.190;2022-07-04T02:02:10;13.50;99.90
46041;DHT22;31779;49.124;19.190;2022-07-04T02:04:38;13.40;99.90
46041;DHT22;31779;49.124;19.190;2022-07-04T02:07:05;13.40;99.90
46041;DHT22;31779;49.124;19.190;2022-07-04T02:09:33;13.40;99.90
46041;DHT22;31779;49.124;19.190;2022-07-04T02:12:01;13.40;99.90
46041;DHT22;31779;49.124;19.190;2022-07-04T02:14:48;13.30;99.90
46041;DHT22;31779;49.124;19.190;2022-07-04T02:17:16;13.20;99.90
46041;DHT22;31779;49.124;19.190;2022-07-04T02:19:44;13.20;99.90
46041;DHT22;31779;49.124;19.190;2022-07-04T02:22:12;13.20;99.90
46041;DHT22;31779;49.124;19.190;2022-07-04T02:24:40;13.20;99.90
46041;DHT22;31779;49.124;19.190;2022-07-04T02:27:09;13.20;99.90
46041;DHT22;31779;49.124;19.190;2022-07-04T02:29:37;13.20;99.90
46041;DHT22;31779;49.124;19.190;2022-07-04T02:32:05;13.10;99.90
46041;DHT22;31779;49.124;19.190;2022-07-04T02:34:33;13.10;99.90
46041;DHT22;31779;49.124;19.190;2022-07-04T02:37:01;13.10;99.90
46041;DHT22;31779;49.124;19.190;2022-07-04T02:39:29;13.10;99.90
46041;DHT22;31779;49.124;19.190;2022-07-04T02:41:56;13.10;99.90
46041;DHT22;31779;49.124;19.190;2022-07-04T02:44:24;13.00;99.90
46041;DHT22;31779;49.124;19.190;2022-07-04T02:46:52;13.00;99.90
46041;DHT22;31779;49.124;19.190;2022-07-04T02:49:20;13.00;99.90
46041;DHT22;31779;49.124;19.190;2022-07-04T02:51:49;12.90;99.90
46041;DHT22;31779;49.124;19.190;2022-07-04T02:54:16;12.90;99.90
46041;DHT22;31779;49.124;19.190;2022-07-04T02:56:44;12.90;99.90
46041;DHT22;31779;49.124;19.190;2022-07-04T02:59:12;12.90;99.90
46041;DHT22;31779;49.124;19.190;2022-07-04T03:01:40;12.90;99.90
46041;DHT22;31779;49.124;19.190;2022-07-04T03:04:08;12.90;99.90
46041;DHT22;31779;49.124;19.190;2022-07-04T03:06:35;12.90;99.90
46041;DHT22;31779;49.124;19.190;2022-07-04T03:09:03;12.90;99.90
46041;DHT22;31779;49.124;19.190;2022-07-04T03:11:31;12.90;99.90
46041;DHT22;31779;49.124;19.190;2022-07-04T03:13:59;12.90;99.90
46041;DHT22;31779;49.124;19.190;2022-07-04T03:16:27;13.00;99.90
46041;DHT22;31779;49.124;19.190;2022-07-04T03:18:55;13.00;99.90
46041;DHT22;31779;49.124;19.190;2022-07-04T03:21:23;13.00;99.90
46041;DHT22;31779;49.124;19.190;2022-07-04T03:23:51;13.00;99.90
46041;DHT22;31779;49.124;19.190;2022-07-04T03:26:26;12.90;99.90
46041;DHT22;31779;49.124;19.190;2022-07-04T03:28:55;13.00;99.90
46041;DHT22;31779;49.124;19.190;2022-07-04T03:31:24;12.90;99.90
46041;DHT22;31779;49.124;19.190;2022-07-04T03:33:53;13.00;99.90
46041;DHT22;31779;49.124;19.190;2022-07-04T03:36:21;13.00;99.90
46041;DHT22;31779;49.124;19.190;2022-07-04T03:38:49;13.10;99.90
46041;DHT22;31779;49.124;19.190;2022-07-04T03:41:17;13.00;99.90
46041;DHT22;31779;49.124;19.190;2022-07-04T03:43:44;13.10;99.90
46041;DHT22;31779;49.124;19.190;2022-07-04T03:46:12;13.10;99.90
46041;DHT22;31779;49.124;19.190;2022-07-04T03:48:40;13.20;99.90
46041;DHT22;31779;49.124;19.190;2022-07-04T03:51:11;13.10;99.90
46041;DHT22;31779;49.124;19.190;2022-07-04T03:53:40;13.10;99.90
46041;DHT22;31779;49.124;19.190;2022-07-04T03:56:08;13.10;99.90
46041;DHT22;31779;49.124;19.190;2022-07-04T03:58:36;13.20;99.90
46041;DHT22;31779;49.124;19.190;2022-07-04T04:01:04;13.20;99.90
46041;DHT22;31779;49.124;19.190;2022-07-04T04:03:32;13.20;99.90
46041;DHT22;31779;49.124;19.190;2022-07-04T04:06:18;13.40;99.90
46041;DHT22;31779;49.124;19.190;2022-07-04T04:08:46;13.50;99.90
46041;DHT22;31779;49.124;19.190;2022-07-04T04:11:14;13.60;99.90
46041;DHT22;31779;49.124;19.190;2022-07-04T04:13:41;13.80;99.90
46041;DHT22;31779;49.124;19.190;2022-07-04T04:16:10;13.80;99.90
46041;DHT22;31779;49.124;19.190;2022-07-04T04:18:37;14.00;99.90
46041;DHT22;31779;49.124;19.190;2022-07-04T04:21:05;14.20;99.90
46041;DHT22;31779;49.124;19.190;2022-07-04T04:23:34;14.40;99.90
46041;DHT22;31779;49.124;19.190;2022-07-04T04:26:02;14.50;99.90
46041;DHT22;31779;49.124;19.190;2022-07-04T04:28:29;14.60;99.90
46041;DHT22;31779;49.124;19.190;2022-07-04T04:30:57;14.80;99.90
46041;DHT22;31779;49.124;19.190;2022-07-04T04:33:25;14.80;99.90
46041;DHT22;31779;49.124;19.190;2022-07-04T04:35:53;15.00;99.90
46041;DHT22;31779;49.124;19.190;2022-07-04T04:38:21;15.00;99.90
46041;DHT22;31779;49.124;19.190;2022-07-04T04:40:49;15.20;99.90
46041;DHT22;31779;49.124;19.190;2022-07-04T04:43:16;15.30;99.90
46041;DHT22;31779;49.124;19.190;2022-07-04T04:45:44;15.30;99.90
46041;DHT22;31779;49.124;19.190;2022-07-04T04:48:12;15.40;99.90
46041;DHT22;31779;49.124;19.190;2022-07-04T04:50:40;15.50;99.90
46041;DHT22;31779;49.124;19.190;2022-07-04T04:53:08;15.60;99.90
46041;DHT22;31779;49.124;19.190;2022-07-04T04:55:36;15.70;99.90
46041;DHT22;31779;49.124;19.190;2022-07-04T04:58:04;15.80;99.90
46041;DHT22;31779;49.124;19.190;2022-07-04T05:00:32;16.00;99.90
46041;DHT22;31779;49.124;19.190;2022-07-04T05:03:00;16.10;99.90
46041;DHT22;31779;49.124;19.190;2022-07-04T05:05:28;16.30;99.90
46041;DHT22;31779;49.124;19.190;2022-07-04T05:07:56;16.40;99.90
46041;DHT22;31779;49.124;19.190;2022-07-04T05:10:24;16.50;99.90
46041;DHT22;31779;49.124;19.190;2022-07-04T05:12:52;16.50;99.90
46041;DHT22;31779;49.124;19.190;2022-07-04T05:15:19;16.50;99.90
46041;DHT22;31779;49.124;19.190;2022-07-04T05:17:47;16.50;99.90
46041;DHT22;31779;49.124;19.190;2022-07-04T05:20:15;16.50;99.90
46041;DHT22;31779;49.124;19.190;2022-07-04T05:22:43;16.70;99.90
46041;DHT22;31779;49.124;19.190;2022-07-04T05:25:11;16.90;99.90
46041;DHT22;31779;49.124;19.190;2022-07-04T05:27:39;17.10;99.90
46041;DHT22;31779;49.124;19.190;2022-07-04T05:30:08;17.30;99.90
46041;DHT22;31779;49.124;19.190;2022-07-04T05:32:40;17.50;99.90
46041;DHT22;31779;49.124;19.190;2022-07-04T05:35:09;17.70;99.90
46041;DHT22;31779;49.124;19.190;2022-07-04T05:37:38;17.90;99.90
46041;DHT22;31779;49.124;19.190;2022-07-04T05:40:07;18.00;99.90
46041;DHT22;31779;49.124;19.190;2022-07-04T05:42:35;18.10;99.90
46041;DHT22;31779;49.124;19.190;2022-07-04T05:45:03;18.10;99.90
46041;DHT22;31779;49.124;19.190;2022-07-04T05:47:31;18.20;99.90
46041;DHT22;31779;49.124;19.190;2022-07-04T05:49:59;18.40;99.90
46041;DHT22;31779;49.124;19.190;2022-07-04T05:52:28;18.70;99.90
46041;DHT22;31779;49.124;19.190;2022-07-04T05:54:57;18.90;99.90
46041;DHT22;31779;49.124;19.190;2022-07-04T05:57:25;19.10;99.90
46041;DHT22;31779;49.124;19.190;2022-07-04T05:59:53;19.20;99.90
46041;DHT22;31779;49.124;19.190;2022-07-04T06:02:21;19.40;99.90
46041;DHT22;31779;49.124;19.190;2022-07-04T06:04:49;19.50;99.90
46041;DHT22;31779;49.124;19.190;2022-07-04T06:07:17;19.90;99.90
46041;DHT22;31779;49.124;19.190;2022-07-04T06:09:48;20.00;99.90
46041;DHT22;31779;49.124;19.190;2022-07-04T06:12:16;20.00;99.90
46041;DHT22;31779;49.124;19.190;2022-07-04T06:14:44;20.00;99.90
46041;DHT22;31779;49.124;19.190;2022-07-04T06:17:13;20.00;99.90
46041;DHT22;31779;49.124;19.190;2022-07-04T06:19:40;20.00;99.90
46041;DHT22;31779;49.124;19.190;2022-07-04T06:22:08;20.20;99.90
46041;DHT22;31779;49.124;19.190;2022-07-04T06:24:36;20.30;99.90
46041;DHT22;31779;49.124;19.190;2022-07-04T06:27:04;20.50;99.90
46041;DHT22;31779;49.124;19.190;2022-07-04T06:29:33;20.80;99.90
46041;DHT22;31779;49.124;19.190;2022-07-04T06:32:01;21.00;99.90
46041;DHT22;31779;49.124;19.190;2022-07-04T06:34:29;21.10;99.90
46041;DHT22;31779;49.124;19.190;2022-07-04T06:37:16;21.10;99.90
46041;DHT22;31779;49.124;19.190;2022-07-04T06:39:45;21.20;99.90
46041;DHT22;31779;49.124;19.190;2022-07-04T06:42:13;21.30;99.90
46041;DHT22;31779;49.124;19.190;2022-07-04T06:44:41;21.40;99.90
46041;DHT22;31779;49.124;19.190;2022-07-04T06:47:09;21.60;99.90
46041;DHT22;31779;49.124;19.190;2022-07-04T06:49:37;21.80;99.90
46041;DHT22;31779;49.124;19.190;2022-07-04T06:52:06;21.90;99.90
46041;DHT22;31779;49.124;19.190;2022-07-04T06:54:33;22.10;99.90
46041;DHT22;31779;49.124;19.190;2022-07-04T06:57:01;22.20;99.90
46041;DHT22;31779;49.124;19.190;2022-07-04T06:59:49;22.50;99.90
46041;DHT22;31779;49.124;19.190;2022-07-04T07:02:17;22.70;99.90
46041;DHT22;31779;49.124;19.190;2022-07-04T07:04:45;23.00;99.90
46041;DHT22;31779;49.124;19.190;2022-07-04T07:07:14;23.10;99.90
46041;DHT22;31779;49.124;19.190;2022-07-04T07:09:43;23.30;99.90
46041;DHT22;31779;49.124;19.190;2022-07-04T07:12:12;23.60;99.90
46041;DHT22;31779;49.124;19.190;2022-07-04T07:14:40;23.80;99.90
46041;DHT22;31779;49.124;19.190;2022-07-04T07:17:08;23.90;99.90
46041;DHT22;31779;49.124;19.190;2022-07-04T07:19:36;24.20;99.90
46041;DHT22;31779;49.124;19.190;2022-07-04T07:22:06;24.50;99.90
46041;DHT22;31779;49.124;19.190;2022-07-04T07:24:34;24.80;99.40
46041;DHT22;31779;49.124;19.190;2022-07-04T07:27:02;25.10;99.30
46041;DHT22;31779;49.124;19.190;2022-07-04T07:29:30;25.60;94.00
46041;DHT22;31779;49.124;19.190;2022-07-04T07:31:58;27.10;94.40
46041;DHT22;31779;49.124;19.190;2022-07-04T07:34:27;30.20;86.90
46041;DHT22;31779;49.124;19.190;2022-07-04T07:36:55;29.80;76.20
46041;DHT22;31779;49.124;19.190;2022-07-04T07:39:23;28.80;72.60
46041;DHT22;31779;49.124;19.190;2022-07-04T07:41:51;28.60;75.60
46041;DHT22;31779;49.124;19.190;2022-07-04T07:44:19;28.90;74.80
46041;DHT22;31779;49.124;19.190;2022-07-04T07:46:47;28.70;76.60
46041;DHT22;31779;49.124;19.190;2022-07-04T07:49:15;28.20;74.60
46041;DHT22;31779;49.124;19.190;2022-07-04T07:51:43;28.20;72.90
46041;DHT22;31779;49.124;19.190;2022-07-04T07:54:12;27.60;72.10
46041;DHT22;31779;49.124;19.190;2022-07-04T07:56:44;27.80;66.90
46041;DHT22;31779;49.124;19.190;2022-07-04T07:59:13;27.70;78.20
46041;DHT22;31779;49.124;19.190;2022-07-04T08:01:41;27.80;73.10
46041;DHT22;31779;49.124;19.190;2022-07-04T08:04:09;28.30;66.50
46041;DHT22;31779;49.124;19.190;2022-07-04T08:06:56;28.50;69.80
46041;DHT22;31779;49.124;19.190;2022-07-04T08:09:44;28.90;70.00
46041;DHT22;31779;49.124;19.190;2022-07-04T08:12:12;30.10;65.10
46041;DHT22;31779;49.124;19.190;2022-07-04T08:14:40;30.50;66.70
46041;DHT22;31779;49.124;19.190;2022-07-04T08:17:08;30.40;61.90
46041;DHT22;31779;49.124;19.190;2022-07-04T08:19:39;31.00;66.80
46041;DHT22;31779;49.124;19.190;2022-07-04T08:22:07;31.60;60.70
46041;DHT22;31779;49.124;19.190;2022-07-04T08:24:43;32.00;58.10
46041;DHT22;31779;49.124;19.190;2022-07-04T08:27:12;32.40;57.30
46041;DHT22;31779;49.124;19.190;2022-07-04T08:29:41;37.50;48.10
46041;DHT22;31779;49.124;19.190;2022-07-04T08:32:11;40.80;45.10
46041;DHT22;31779;49.124;19.190;2022-07-04T08:34:39;43.00;40.30
46041;DHT22;31779;49.124;19.190;2022-07-04T08:37:08;42.70;40.30
46041;DHT22;31779;49.124;19.190;2022-07-04T08:39:36;43.10;41.70
46041;DHT22;31779;49.124;19.190;2022-07-04T08:42:12;44.10;36.30
46041;DHT22;31779;49.124;19.190;2022-07-04T08:44:46;42.50;33.50
46041;DHT22;31779;49.124;19.190;2022-07-04T08:47:23;42.50;35.80
46041;DHT22;31779;49.124;19.190;2022-07-04T08:50:12;40.30;35.20
46041;DHT22;31779;49.124;19.190;2022-07-04T08:52:45;37.80;39.70
46041;DHT22;31779;49.124;19.190;2022-07-04T08:55:15;35.80;39.70
46041;DHT22;31779;49.124;19.190;2022-07-04T08:58:02;36.00;41.80
46041;DHT22;31779;49.124;19.190;2022-07-04T09:00:51;36.10;38.80
46041;DHT22;31779;49.124;19.190;2022-07-04T09:03:20;35.60;40.60
46041;DHT22;31779;49.124;19.190;2022-07-04T09:05:49;35.10;40.60
46041;DHT22;31779;49.124;19.190;2022-07-04T09:08:17;34.60;40.10
46041;DHT22;31779;49.124;19.190;2022-07-04T09:10:47;34.50;44.80
46041;DHT22;31779;49.124;19.190;2022-07-04T09:13:15;34.30;42.80
46041;DHT22;31779;49.124;19.190;2022-07-04T09:15:46;33.60;45.10
46041;DHT22;31779;49.124;19.190;2022-07-04T09:21:03;32.80;42.40
46041;DHT22;31779;49.124;19.190;2022-07-04T09:23:33;32.90;45.10
46041;DHT22;31779;49.124;19.190;2022-07-04T09:28:44;32.30;45.70
46041;DHT22;31779;49.124;19.190;2022-07-04T09:31:17;32.70;43.00
46041;DHT22;31779;49.124;19.190;2022-07-04T09:36:27;32.90;43.10
46041;DHT22;31779;49.124;19.190;2022-07-04T09:44:46;32.10;45.00
46041;DHT22;31779;49.124;19.190;2022-07-04T09:47:28;32.00;42.30
46041;DHT22;31779;49.124;19.190;2022-07-04T09:52:28;31.80;43.50
46041;DHT22;31779;49.124;19.190;2022-07-04T09:54:59;31.70;41.30
46041;DHT22;31779;49.124;19.190;2022-07-04T09:57:29;31.20;41.60
46041;DHT22;31779;49.124;19.190;2022-07-04T10:00:17;31.80;42.90
46041;DHT22;31779;49.124;19.190;2022-07-04T10:02:48;32.00;40.60
46041;DHT22;31779;49.124;19.190;2022-07-04T10:05:24;32.40;40.30
46041;DHT22;31779;49.124;19.190;2022-07-04T10:07:55;32.70;43.60
46041;DHT22;31779;49.124;19.190;2022-07-04T10:10:34;31.70;43.20
46041;DHT22;31779;49.124;19.190;2022-07-04T10:13:09;32.20;43.90
46041;DHT22;31779;49.124;19.190;2022-07-04T10:15:40;31.70;42.50
46041;DHT22;31779;49.124;19.190;2022-07-04T10:18:09;31.10;47.30
46041;DHT22;31779;49.124;19.190;2022-07-04T10:20:38;31.20;42.40
46041;DHT22;31779;49.124;19.190;2022-07-04T10:23:06;31.20;44.60
46041;DHT22;31779;49.124;19.190;2022-07-04T10:25:36;32.00;41.20
46041;DHT22;31779;49.124;19.190;2022-07-04T10:28:05;31.50;43.10
46041;DHT22;31779;49.124;19.190;2022-07-04T10:30:34;32.10;43.00
46041;DHT22;31779;49.124;19.190;2022-07-04T10:33:10;32.60;44.80
46041;DHT22;31779;49.124;19.190;2022-07-04T10:35:53;32.90;42.10
46041;DHT22;31779;49.124;19.190;2022-07-04T10:38:24;33.30;43.90
46041;DHT22;31779;49.124;19.190;2022-07-04T10:48:30;32.20;44.60
46041;DHT22;31779;49.124;19.190;2022-07-04T10:51:05;32.60;43.60
46041;DHT22;31779;49.124;19.190;2022-07-04T10:53:58;32.60;46.10
46041;DHT22;31779;49.124;19.190;2022-07-04T10:58:55;31.30;43.60
46041;DHT22;31779;49.124;19.190;2022-07-04T11:01:25;31.10;42.40
46041;DHT22;31779;49.124;19.190;2022-07-04T11:03:54;31.30;42.60
46041;DHT22;31779;49.124;19.190;2022-07-04T11:09:24;32.10;45.60
46041;DHT22;31779;49.124;19.190;2022-07-04T11:12:00;32.20;39.80
46041;DHT22;31779;49.124;19.190;2022-07-04T11:14:46;32.10;39.10
46041;DHT22;31779;49.124;19.190;2022-07-04T11:17:20;32.10;41.00
46041;DHT22;31779;49.124;19.190;2022-07-04T11:19:58;32.40;41.50
46041;DHT22;31779;49.124;19.190;2022-07-04T11:22:27;32.50;44.80
46041;DHT22;31779;49.124;19.190;2022-07-04T11:24:55;31.90;43.90
46041;DHT22;31779;49.124;19.190;2022-07-04T11:27:24;31.60;43.20
46041;DHT22;31779;49.124;19.190;2022-07-04T11:29:54;31.60;42.10
46041;DHT22;31779;49.124;19.190;2022-07-04T11:32:31;31.70;43.40
46041;DHT22;31779;49.124;19.190;2022-07-04T11:35:00;31.70;42.90
46041;DHT22;31779;49.124;19.190;2022-07-04T11:37:27;32.00;42.80
46041;DHT22;31779;49.124;19.190;2022-07-04T11:39:56;31.90;40.90
46041;DHT22;31779;49.124;19.190;2022-07-04T11:43:05;31.90;38.90
46041;DHT22;31779;49.124;19.190;2022-07-04T11:45:54;31.80;42.10
46041;DHT22;31779;49.124;19.190;2022-07-04T11:48:26;32.20;41.10
46041;DHT22;31779;49.124;19.190;2022-07-04T11:50:54;32.00;40.40
46041;DHT22;31779;49.124;19.190;2022-07-04T11:53:22;32.20;38.10
46041;DHT22;31779;49.124;19.190;2022-07-04T11:55:55;31.90;38.50
46041;DHT22;31779;49.124;19.190;2022-07-04T11:58:24;31.80;40.20
46041;DHT22;31779;49.124;19.190;2022-07-04T12:00:52;31.50;39.20
46041;DHT22;31779;49.124;19.190;2022-07-04T12:03:20;31.20;39.30
46041;DHT22;31779;49.124;19.190;2022-07-04T12:06:03;31.40;40.90
46041;DHT22;31779;49.124;19.190;2022-07-04T12:08:32;31.60;40.20
46041;DHT22;31779;49.124;19.190;2022-07-04T12:11:00;31.50;41.60
46041;DHT22;31779;49.124;19.190;2022-07-04T12:13:29;31.50;39.00
46041;DHT22;31779;49.124;19.190;2022-07-04T12:15:58;31.30;38.70
46041;DHT22;31779;49.124;19.190;2022-07-04T12:18:28;31.50;42.40
46041;DHT22;31779;49.124;19.190;2022-07-04T12:21:17;31.50;40.10
46041;DHT22;31779;49.124;19.190;2022-07-04T12:23:52;31.20;41.10
46041;DHT22;31779;49.124;19.190;2022-07-04T12:26:48;31.70;43.40
46041;DHT22;31779;49.124;19.190;2022-07-04T12:29:25;31.90;42.20
46041;DHT22;31779;49.124;19.190;2022-07-04T12:31:59;32.00;39.30
46041;DHT22;31779;49.124;19.190;2022-07-04T12:34:26;31.90;39.60
46041;DHT22;31779;49.124;19.190;2022-07-04T12:36:56;32.00;40.30
46041;DHT22;31779;49.124;19.190;2022-07-04T12:39:34;31.90;39.00
46041;DHT22;31779;49.124;19.190;2022-07-04T12:42:14;31.80;39.90
46041;DHT22;31779;49.124;19.190;2022-07-04T12:44:44;31.80;43.00
46041;DHT22;31779;49.124;19.190;2022-07-04T12:47:13;31.50;40.60
46041;DHT22;31779;49.124;19.190;2022-07-04T12:49:56;31.40;43.10
46041;DHT22;31779;49.124;19.190;2022-07-04T12:52:27;31.80;42.00
46041;DHT22;31779;49.124;19.190;2022-07-04T12:55:06;31.70;45.50
46041;DHT22;31779;49.124;19.190;2022-07-04T12:57:37;31.90;41.30
46041;DHT22;31779;49.124;19.190;2022-07-04T13:00:08;31.90;41.00
46041;DHT22;31779;49.124;19.190;2022-07-04T13:02:57;31.50;42.00
46041;DHT22;31779;49.124;19.190;2022-07-04T13:05:25;32.00;41.60
46041;DHT22;31779;49.124;19.190;2022-07-04T13:07:53;31.10;41.80
46041;DHT22;31779;49.124;19.190;2022-07-04T13:10:21;31.40;41.30
46041;DHT22;31779;49.124;19.190;2022-07-04T13:12:50;31.50;41.50
46041;DHT22;31779;49.124;19.190;2022-07-04T13:15:18;31.70;41.30
46041;DHT22;31779;49.124;19.190;2022-07-04T13:17:46;31.50;43.40
46041;DHT22;31779;49.124;19.190;2022-07-04T13:20:14;31.90;44.70
46041;DHT22;31779;49.124;19.190;2022-07-04T13:22:42;32.00;40.60
46041;DHT22;31779;49.124;19.190;2022-07-04T13:25:10;32.00;41.60
46041;DHT22;31779;49.124;19.190;2022-07-04T13:27:38;31.80;41.20
46041;DHT22;31779;49.124;19.190;2022-07-04T13:30:07;31.90;42.50
46041;DHT22;31779;49.124;19.190;2022-07-04T13:32:36;31.70;41.70
46041;DHT22;31779;49.124;19.190;2022-07-04T13:35:07;31.60;41.20
46041;DHT22;31779;49.124;19.190;2022-07-04T13:37:35;31.50;42.80
46041;DHT22;31779;49.124;19.190;2022-07-04T13:40:03;31.20;41.60
46041;DHT22;31779;49.124;19.190;2022-07-04T13:42:32;30.40;40.80
46041;DHT22;31779;49.124;19.190;2022-07-04T13:45:19;30.10;41.40
46041;DHT22;31779;49.124;19.190;2022-07-04T13:47:48;30.00;43.70
46041;DHT22;31779;49.124;19.190;2022-07-04T13:50:16;29.80;41.70
46041;DHT22;31779;49.124;19.190;2022-07-04T13:52:50;29.90;42.50
46041;DHT22;31779;49.124;19.190;2022-07-04T13:55:18;30.20;43.10
46041;DHT22;31779;49.124;19.190;2022-07-04T13:57:46;30.00;43.20
46041;DHT22;31779;49.124;19.190;2022-07-04T14:00:15;30.30;44.40
46041;DHT22;31779;49.124;19.190;2022-07-04T14:02:43;30.30;45.10
46041;DHT22;31779;49.124;19.190;2022-07-04T14:05:11;30.00;44.70
46041;DHT22;31779;49.124;19.190;2022-07-04T14:07:39;30.00;45.40
46041;DHT22;31779;49.124;19.190;2022-07-04T14:10:07;29.70;44.40
46041;DHT22;31779;49.124;19.190;2022-07-04T14:12:36;29.60;44.90
46041;DHT22;31779;49.124;19.190;2022-07-04T14:15:04;29.30;44.20
46041;DHT22;31779;49.124;19.190;2022-07-04T14:17:32;29.10;46.40
46041;DHT22;31779;49.124;19.190;2022-07-04T14:20:04;29.10;45.30
46041;DHT22;31779;49.124;19.190;2022-07-04T14:22:34;29.10;44.60
46041;DHT22;31779;49.124;19.190;2022-07-04T14:25:03;29.00;49.70
46041;DHT22;31779;49.124;19.190;2022-07-04T14:27:33;29.20;46.20
46041;DHT22;31779;49.124;19.190;2022-07-04T14:30:01;29.40;46.50
46041;DHT22;31779;49.124;19.190;2022-07-04T14:32:29;29.50;43.50
46041;DHT22;31779;49.124;19.190;2022-07-04T14:34:57;29.50;43.10
46041;DHT22;31779;49.124;19.190;2022-07-04T14:37:24;29.60;45.00
46041;DHT22;31779;49.124;19.190;2022-07-04T14:39:52;29.50;45.10
46041;DHT22;31779;49.124;19.190;2022-07-04T14:42:20;29.40;49.60
46041;DHT22;31779;49.124;19.190;2022-07-04T14:44:48;29.10;44.50
46041;DHT22;31779;49.124;19.190;2022-07-04T14:47:17;29.20;48.70
46041;DHT22;31779;49.124;19.190;2022-07-04T14:49:46;29.10;46.10
46041;DHT22;31779;49.124;19.190;2022-07-04T14:52:16;29.00;47.30
46041;DHT22;31779;49.124;19.190;2022-07-04T14:54:44;29.10;47.70
46041;DHT22;31779;49.124;19.190;2022-07-04T14:57:12;28.90;45.40
46041;DHT22;31779;49.124;19.190;2022-07-04T14:59:41;29.00;46.00
46041;DHT22;31779;49.124;19.190;2022-07-04T15:02:09;28.90;47.80
46041;DHT22;31779;49.124;19.190;2022-07-04T15:04:37;28.80;47.70
46041;DHT22;31779;49.124;19.190;2022-07-04T15:07:05;28.50;45.80
46041;DHT22;31779;49.124;19.190;2022-07-04T15:09:34;28.20;46.30
46041;DHT22;31779;49.124;19.190;2022-07-04T15:12:02;28.00;47.70
46041;DHT22;31779;49.124;19.190;2022-07-04T15:14:29;27.80;47.20
46041;DHT22;31779;49.124;19.190;2022-07-04T15:16:58;27.90;48.80
46041;DHT22;31779;49.124;19.190;2022-07-04T15:19:27;28.00;48.70
46041;DHT22;31779;49.124;19.190;2022-07-04T15:21:55;28.00;48.30
46041;DHT22;31779;49.124;19.190;2022-07-04T15:24:42;28.10;51.60
46041;DHT22;31779;49.124;19.190;2022-07-04T15:27:10;28.00;49.40
46041;DHT22;31779;49.124;19.190;2022-07-04T15:29:38;27.90;54.00
46041;DHT22;31779;49.124;19.190;2022-07-04T15:32:06;27.80;50.40
46041;DHT22;31779;49.124;19.190;2022-07-04T15:34:37;27.80;48.70
46041;DHT22;31779;49.124;19.190;2022-07-04T15:37:26;27.70;49.00
46041;DHT22;31779;49.124;19.190;2022-07-04T15:39:59;27.50;47.60
46041;DHT22;31779;49.124;19.190;2022-07-04T15:42:28;27.60;48.30
46041;DHT22;31779;49.124;19.190;2022-07-04T15:44:57;27.60;48.30
46041;DHT22;31779;49.124;19.190;2022-07-04T15:47:25;27.50;47.50
46041;DHT22;31779;49.124;19.190;2022-07-04T15:49:53;27.40;49.50
46041;DHT22;31779;49.124;19.190;2022-07-04T15:52:21;27.10;51.30
46041;DHT22;31779;49.124;19.190;2022-07-04T15:54:50;27.00;53.70
46041;DHT22;31779;49.124;19.190;2022-07-04T15:57:19;26.80;54.80
46041;DHT22;31779;49.124;19.190;2022-07-04T15:59:47;26.80;49.00
46041;DHT22;31779;49.124;19.190;2022-07-04T16:02:15;26.80;51.30
46041;DHT22;31779;49.124;19.190;2022-07-04T16:04:44;26.80;51.90
46041;DHT22;31779;49.124;19.190;2022-07-04T16:07:12;26.50;56.60